createdAt,value
2019-05-12T00:02:39.645Z,102413.09
2019-05-12T00:06:03.065Z,102411.42
2019-05-12T00:09:28.204Z,102414.11
2019-05-12T00:12:51.168Z,102417.27
2019-05-12T00:16:14.318Z,102413.70
2019-05-12T00:19:37.805Z,102411.89
2019-05-12T00:23:19.923Z,102420.66
2019-05-12T00:26:30.430Z,102419.97
2019-05-12T00:29:53.856Z,102416.81
2019-05-12T00:33:18.014Z,102423.95
2019-05-12T00:36:41.292Z,102438.67
2019-05-12T00:40:04.602Z,102442.09
2019-05-12T00:43:28.186Z,102449.17
2019-05-12T00:46:51.440Z,102445.89
2019-05-12T00:50:14.686Z,102460.98
2019-05-12T00:53:43.259Z,102468.83
2019-05-12T00:57:04.369Z,102464.87
2019-05-12T01:00:29.370Z,102471.88
2019-05-12T01:03:52.348Z,102479.17
2019-05-12T01:07:15.409Z,102481.03
2019-05-12T01:10:39.237Z,102479.28
2019-05-12T01:14:02.551Z,102485.16
2019-05-12T01:17:28.094Z,102486.83
2019-05-12T01:20:51.260Z,102488.92
2019-05-12T01:24:14.350Z,102497.98
2019-05-12T01:27:38.081Z,102504.53
2019-05-12T01:31:03.455Z,102499.98
2019-05-12T01:34:27.777Z,102505.50
2019-05-12T01:37:51.602Z,102509.68
2019-05-12T01:41:14.708Z,102523.06
2019-05-12T01:44:38.312Z,102531.61
2019-05-12T01:48:01.569Z,102532.30
2019-05-12T01:51:24.631Z,102542.23
2019-05-12T01:54:48.304Z,102540.17
2019-05-12T01:58:11.604Z,102552.77
2019-05-12T02:01:35.766Z,102559.70
2019-05-12T02:05:04.102Z,102560.25
2019-05-12T02:08:38.362Z,102564.39
2019-05-12T02:12:01.986Z,102560.95
2019-05-12T02:15:27.663Z,102559.84
2019-05-12T02:18:50.268Z,102565.05
2019-05-12T02:22:13.315Z,102569.78
2019-05-12T02:25:38.021Z,102572.52
2019-05-12T02:29:01.347Z,102584.76
2019-05-12T02:32:28.426Z,102588.84
2019-05-12T02:35:49.379Z,102588.95
2019-05-12T02:39:15.042Z,102590.55
2019-05-12T02:42:37.768Z,102597.89
2019-05-12T02:46:04.918Z,102606.65
2019-05-12T02:49:28.240Z,102617.45
2019-05-12T02:52:54.449Z,102619.87
2019-05-12T02:56:18.843Z,102627.92
2019-05-12T02:59:46.226Z,102628.27
2019-05-12T03:03:14.414Z,102638.33
2019-05-12T03:06:37.322Z,102642.59
2019-05-12T03:10:05.030Z,102647.35
2019-05-12T03:13:28.049Z,102647.97
2019-05-12T03:16:53.883Z,102653.02
2019-05-12T03:20:16.164Z,102664.14
2019-05-12T03:23:39.196Z,102659.18
2019-05-12T03:27:04.392Z,102664.14
2019-05-12T03:30:29.458Z,102665.62
2019-05-12T03:33:59.730Z,102669.03
2019-05-12T03:37:18.646Z,102671.63
2019-05-12T03:40:45.023Z,102688.02
2019-05-12T03:44:06.836Z,102684.72
2019-05-12T03:47:29.922Z,102701.60
2019-05-12T03:50:54.152Z,102702.23
2019-05-12T03:54:17.457Z,102711.94
2019-05-12T03:57:40.736Z,102716.34
2019-05-12T04:01:04.872Z,102719.32
2019-05-12T04:04:28.178Z,102724.27
2019-05-12T04:07:54.487Z,102720.72
2019-05-12T04:11:16.138Z,102730.16
2019-05-12T04:14:40.455Z,102734.70
2019-05-12T04:18:05.656Z,102742.27
2019-05-12T04:21:28.781Z,102744.20
2019-05-12T04:24:54.908Z,102747.60
2019-05-12T04:28:16.799Z,102752.91
2019-05-12T04:31:39.844Z,102761.13
2019-05-12T04:35:05.042Z,102759.88
2019-05-12T04:38:28.265Z,102768.13
2019-05-12T04:41:54.983Z,102776.70
2019-05-12T04:45:16.744Z,102776.81
2019-05-12T04:48:39.762Z,102787.55
2019-05-12T04:52:05.258Z,102784.27
2019-05-12T04:55:27.741Z,102794.69
2019-05-12T04:58:54.314Z,102797.53
2019-05-12T05:02:15.716Z,102794.31
2019-05-12T05:05:39.094Z,102801.88
2019-05-12T05:09:05.272Z,102813.91
2019-05-12T05:12:28.496Z,102816.59
2019-05-12T05:15:54.370Z,102826.98
2019-05-12T05:19:16.834Z,102839.91
2019-05-12T05:22:40.405Z,102848.62
2019-05-12T05:26:03.883Z,102851.68
2019-05-12T05:29:26.878Z,102868.09
2019-05-12T05:32:49.986Z,102868.05
2019-05-12T05:36:19.575Z,102869.82
2019-05-12T05:39:48.221Z,102881.06
2019-05-12T05:43:12.405Z,102885.88
2019-05-12T05:46:29.680Z,102882.16
2019-05-12T05:49:53.983Z,102891.67
2019-05-12T05:53:19.603Z,102893.94
2019-05-12T05:56:50.723Z,102896.24
2019-05-12T06:00:16.417Z,102896.30
2019-05-12T06:03:33.896Z,102896.19
2019-05-12T06:06:56.899Z,102897.58
2019-05-12T06:10:19.954Z,102898.61
2019-05-12T06:13:44.305Z,102905.71
2019-05-12T06:17:08.712Z,102910.14
2019-05-12T06:20:35.451Z,102914.63
2019-05-12T06:23:56.917Z,102936.77
2019-05-12T06:27:20.942Z,102940.81
2019-05-12T06:30:47.663Z,102943.53
2019-05-12T06:34:15.370Z,102939.80
2019-05-12T06:37:34.936Z,102942.19
2019-05-12T06:40:58.456Z,102948.61
2019-05-12T06:44:24.069Z,102949.34
2019-05-12T06:47:49.631Z,102948.13
2019-05-12T06:51:17.035Z,102951.55
2019-05-12T06:54:37.196Z,102960.34
2019-05-12T06:58:00.244Z,102960.05
2019-05-12T07:01:24.159Z,102968.02
2019-05-12T07:04:57.245Z,102969.52
2019-05-12T07:08:20.087Z,102974.95
2019-05-12T07:11:47.570Z,102983.36
2019-05-12T07:15:06.167Z,102979.47
2019-05-12T07:18:32.827Z,102986.77
2019-05-12T07:21:58.803Z,102990.31
2019-05-12T07:25:22.873Z,102988.59
2019-05-12T07:28:44.235Z,102985.34
2019-05-12T07:32:16.442Z,102990.86
2019-05-12T07:35:34.321Z,102988.22
2019-05-12T07:39:03.945Z,102987.62
2019-05-12T07:42:31.538Z,102990.09
2019-05-12T07:46:01.831Z,102987.02
2019-05-12T07:49:22.030Z,102986.30
2019-05-12T07:52:44.311Z,102989.39
2019-05-12T07:56:07.433Z,102997.58
2019-05-12T07:59:39.522Z,103005.48
2019-05-12T08:02:55.492Z,103018.71
2019-05-12T08:06:18.653Z,103019.20
2019-05-12T08:09:43.211Z,103012.83
2019-05-12T08:13:06.596Z,103018.22
2019-05-12T08:16:33.640Z,103021.05
2019-05-12T08:19:54.761Z,103021.05
2019-05-12T08:23:17.784Z,103029.25
2019-05-12T08:26:40.901Z,103027.05
2019-05-12T08:30:06.313Z,103021.37
2019-05-12T08:33:29.415Z,103021.74
2019-05-12T08:36:56.728Z,103019.06
2019-05-12T08:40:17.654Z,103022.23
2019-05-12T08:43:46.194Z,103016.91
2019-05-12T08:47:06.024Z,103021.88
2019-05-12T08:50:31.600Z,103020.02
2019-05-12T08:54:02.171Z,103022.27
2019-05-12T08:57:18.998Z,103024.22
2019-05-12T09:00:46.533Z,103028.28
2019-05-12T09:04:12.155Z,103021.38
2019-05-12T09:07:35.797Z,103027.20
2019-05-12T09:10:58.804Z,103024.08
2019-05-12T09:14:23.760Z,103023.59
2019-05-12T09:17:52.457Z,103021.05
2019-05-12T09:21:13.888Z,103029.55
2019-05-12T09:24:36.768Z,103030.54
2019-05-12T09:27:59.971Z,103032.62
2019-05-12T09:31:25.367Z,103034.61
2019-05-12T09:34:52.890Z,103036.66
2019-05-12T09:38:21.439Z,103039.33
2019-05-12T09:41:42.610Z,103035.32
2019-05-12T09:45:06.144Z,103049.06
2019-05-12T09:48:28.277Z,103054.64
2019-05-12T09:51:51.276Z,103049.84
2019-05-12T09:55:14.808Z,103054.09
2019-05-12T09:58:38.008Z,103057.52
2019-05-12T10:02:03.528Z,103047.02
2019-05-12T10:05:30.504Z,103057.02
2019-05-12T10:08:54.943Z,103053.11
2019-05-12T10:12:17.300Z,103063.73
2019-05-12T10:15:40.387Z,103073.84
2019-05-12T10:19:04.101Z,103068.66
2019-05-12T10:22:35.752Z,103077.27
2019-05-12T10:26:09.465Z,103072.28
2019-05-12T10:29:30.630Z,103069.44
2019-05-12T10:32:52.461Z,103078.73
2019-05-12T10:36:15.558Z,103070.78
2019-05-12T10:39:38.588Z,103072.62
2019-05-12T10:43:04.161Z,103078.39
2019-05-12T10:46:28.627Z,103072.73
2019-05-12T10:49:53.883Z,103064.55
2019-05-12T10:53:17.988Z,103075.53
2019-05-12T10:56:43.683Z,103078.56
2019-05-12T11:00:06.689Z,103067.88
2019-05-12T11:03:29.761Z,103070.90
2019-05-12T11:06:53.787Z,103076.46
2019-05-12T11:10:19.997Z,103083.95
2019-05-12T11:13:48.332Z,103078.59
2019-05-12T11:17:09.539Z,103082.07
2019-05-12T11:20:34.289Z,103069.81
2019-05-12T11:23:58.103Z,103076.41
2019-05-12T11:27:21.309Z,103079.09
2019-05-12T11:30:44.462Z,103077.63
2019-05-12T11:34:07.476Z,103085.52
2019-05-12T11:37:30.597Z,103084.16
2019-05-12T11:40:53.928Z,103084.41
2019-05-12T11:44:17.429Z,103083.48
2019-05-12T11:47:40.623Z,103079.23
2019-05-12T11:51:04.028Z,103072.45
2019-05-12T11:54:28.092Z,103065.66
2019-05-12T11:57:51.365Z,103068.41
2019-05-12T12:01:16.360Z,103068.09
2019-05-12T12:04:45.281Z,103072.89
2019-05-12T12:08:08.433Z,103064.73
2019-05-12T12:11:31.535Z,103068.39
2019-05-12T12:14:54.780Z,103072.48
2019-05-12T12:18:17.788Z,103076.41
2019-05-12T12:21:48.064Z,103073.74
2019-05-12T12:25:11.024Z,103074.77
2019-05-12T12:28:31.271Z,103078.38
2019-05-12T12:31:55.463Z,103081.77
2019-05-12T12:35:18.675Z,103085.93
2019-05-12T12:38:43.917Z,103089.66
2019-05-12T12:42:07.175Z,103085.27
2019-05-12T12:45:40.628Z,103083.95
2019-05-12T12:49:08.622Z,103079.55
2019-05-12T12:52:29.284Z,103091.10
2019-05-12T12:55:53.758Z,103086.81
2019-05-12T12:59:16.961Z,103088.34
2019-05-12T13:02:45.115Z,103081.38
2019-05-12T13:06:04.974Z,103094.19
2019-05-12T13:09:27.972Z,103095.75
2019-05-12T13:12:58.672Z,103090.73
2019-05-12T13:16:16.071Z,103094.50
2019-05-12T13:19:39.128Z,103095.38
2019-05-12T13:23:04.049Z,103094.20
2019-05-12T13:26:27.206Z,103111.49
2019-05-12T13:29:50.264Z,103111.01
2019-05-12T13:33:15.103Z,103107.32
2019-05-12T13:36:39.390Z,103113.81
2019-05-12T13:40:02.729Z,103113.92
2019-05-12T13:43:25.810Z,103118.90
2019-05-12T13:46:53.691Z,103120.53
2019-05-12T13:50:21.644Z,103130.00
2019-05-12T13:53:45.456Z,103127.43
2019-05-12T13:57:11.824Z,103133.80
2019-05-12T14:00:30.144Z,103141.34
2019-05-12T14:03:53.730Z,103129.29
2019-05-12T14:07:20.442Z,103141.58
2019-05-12T14:10:53.283Z,103138.02
2019-05-12T14:14:14.132Z,103132.27
2019-05-12T14:17:39.352Z,103143.23
2019-05-12T14:21:00.858Z,103138.45
2019-05-12T14:24:24.001Z,103150.94
2019-05-12T14:27:47.329Z,103136.02
2019-05-12T14:31:22.761Z,103138.01
2019-05-12T14:34:35.598Z,103140.36
2019-05-12T14:37:58.592Z,103140.27
2019-05-12T14:41:26.318Z,103139.92
2019-05-12T14:44:49.680Z,103128.69
2019-05-12T14:48:13.683Z,103139.20
2019-05-12T14:51:36.682Z,103127.70
2019-05-12T14:55:03.337Z,103129.92
2019-05-12T14:58:26.016Z,103123.14
2019-05-12T15:01:57.452Z,103135.62
2019-05-12T15:05:14.378Z,103131.98
2019-05-12T15:08:40.399Z,103136.06
2019-05-12T15:12:03.568Z,103139.35
2019-05-12T15:15:26.739Z,103149.45
2019-05-12T15:18:50.242Z,103146.50
2019-05-12T15:22:14.784Z,103137.34
2019-05-12T15:25:38.215Z,103137.88
2019-05-12T15:29:06.916Z,103146.41
2019-05-12T15:32:26.391Z,103136.43
2019-05-12T15:35:49.555Z,103135.80
2019-05-12T15:39:14.005Z,103144.40
2019-05-12T15:42:37.249Z,103134.02
2019-05-12T15:46:00.511Z,103135.77
2019-05-12T15:49:26.004Z,103144.69
2019-05-12T15:52:48.877Z,103142.63
2019-05-12T15:56:17.574Z,103143.21
2019-05-12T15:59:37.456Z,103143.34
2019-05-12T16:03:00.522Z,103151.19
2019-05-12T16:06:23.539Z,103162.89
2019-05-12T16:09:46.640Z,103167.57
2019-05-12T16:13:09.831Z,103162.97
2019-05-12T16:16:41.998Z,103164.53
2019-05-12T16:19:59.180Z,103173.47
2019-05-12T16:23:24.935Z,103176.17
2019-05-12T16:26:51.853Z,103177.61
2019-05-12T16:30:13.947Z,103184.80
2019-05-12T16:33:37.276Z,103173.46
2019-05-12T16:37:00.290Z,103174.02
2019-05-12T16:40:23.893Z,103178.38
2019-05-12T16:43:47.709Z,103175.34
2019-05-12T16:47:10.721Z,103179.27
2019-05-12T16:50:34.550Z,103176.60
2019-05-12T16:53:57.774Z,103171.24
2019-05-12T16:57:20.894Z,103178.47
2019-05-12T17:00:48.960Z,103176.25
2019-05-12T17:04:09.071Z,103184.78
2019-05-12T17:07:34.332Z,103183.65
2019-05-12T17:11:15.153Z,103184.31
2019-05-12T17:14:23.533Z,103188.45
2019-05-12T17:17:50.763Z,103191.48
2019-05-12T17:21:14.122Z,103192.14
2019-05-12T17:24:37.417Z,103201.91
2019-05-12T17:28:05.503Z,103196.26
2019-05-12T17:31:29.887Z,103189.95
2019-05-12T17:34:53.341Z,103197.32
2019-05-12T17:38:19.671Z,103203.59
2019-05-12T17:41:45.009Z,103204.52
2019-05-12T17:45:09.297Z,103208.59
2019-05-12T17:48:37.143Z,103203.01
2019-05-12T17:51:57.438Z,103208.78
2019-05-12T17:55:22.405Z,103201.69
2019-05-12T17:58:47.586Z,103209.76
2019-05-12T18:02:16.404Z,103203.69
2019-05-12T18:05:36.583Z,103216.72
2019-05-12T18:08:59.735Z,103220.85
2019-05-12T18:12:26.727Z,103226.97
2019-05-12T18:15:48.265Z,103226.02
2019-05-12T18:19:15.424Z,103232.38
2019-05-12T18:22:39.354Z,103238.92
2019-05-12T18:26:03.131Z,103233.40
2019-05-12T18:29:26.723Z,103239.95
2019-05-12T18:32:57.662Z,103234.25
2019-05-12T18:36:16.042Z,103235.22
2019-05-12T18:39:39.241Z,103237.46
2019-05-12T18:43:03.954Z,103250.80
2019-05-12T18:46:27.748Z,103256.78
2019-05-12T18:49:54.063Z,103255.72
2019-05-12T19:23:03.616Z,103288.64
2019-05-12T19:26:32.920Z,103287.49
2019-05-12T19:30:39.543Z,103291.25
2019-05-12T20:10:24.090Z,103343.47
2019-05-12T20:13:59.305Z,103345.91
